createdAt,value
2022-12-01T00:01:08.446Z,4.84
2022-12-01T00:03:41.154Z,4.84
2022-12-01T00:06:23.393Z,4.91
2022-12-01T00:09:14.062Z,4.81
2022-12-01T00:11:50.275Z,4.56
2022-12-01T00:14:17.445Z,4.63
2022-12-01T00:16:45.300Z,4.53
2022-12-01T00:19:18.318Z,4.62
2022-12-01T00:21:46.324Z,4.63
2022-12-01T00:24:18.883Z,4.52
2022-12-01T00:26:47.143Z,4.45
2022-12-01T00:29:15.369Z,4.79
2022-12-01T00:31:51.205Z,4.69
2022-12-01T00:34:24.755Z,4.76
2022-12-01T00:36:53.212Z,4.55
2022-12-01T00:39:25.127Z,4.69
2022-12-01T00:41:53.133Z,5.03
2022-12-01T00:44:21.199Z,5.12
2022-12-01T00:47:13.487Z,4.80
2022-12-01T00:49:52.754Z,5.05
2022-12-01T00:52:21.268Z,4.99
2022-12-01T00:54:49.173Z,4.93
2022-12-01T00:57:17.166Z,5.19
2022-12-01T01:00:13.030Z,5.22
2022-12-01T01:02:42.883Z,4.97
2022-12-01T01:05:13.382Z,4.75
2022-12-01T01:07:41.216Z,5.08
2022-12-01T01:10:09.767Z,4.76
2022-12-01T01:12:43.184Z,4.48
2022-12-01T01:15:11.302Z,4.62
2022-12-01T01:17:39.228Z,4.58
2022-12-01T01:20:07.715Z,4.70
2022-12-01T01:25:27.387Z,5.03
2022-12-01T01:27:55.206Z,5.00
2022-12-01T01:30:23.248Z,4.77
2022-12-01T01:32:56.164Z,4.91
2022-12-01T01:35:23.223Z,4.65
2022-12-01T01:37:55.170Z,4.76
2022-12-01T01:40:23.227Z,4.81
2022-12-01T01:43:17.690Z,4.52
2022-12-01T01:45:45.265Z,4.25
2022-12-01T01:48:19.403Z,4.46
2022-12-01T01:50:47.227Z,4.58
2022-12-01T01:53:15.740Z,4.81
2022-12-01T01:59:01.175Z,4.51
2022-12-01T02:01:34.723Z,4.15
2022-12-01T02:04:07.715Z,4.62
2022-12-01T02:06:35.427Z,4.29
2022-12-01T02:09:03.272Z,4.69
2022-12-01T02:11:49.367Z,4.41
2022-12-01T02:14:29.557Z,4.08
2022-12-01T02:17:43.391Z,4.17
2022-12-01T02:20:23.598Z,4.26
2022-12-01T02:23:32.773Z,4.36
2022-12-01T02:26:36.278Z,4.29
2022-12-01T02:30:00.193Z,4.36
2022-12-01T02:33:18.059Z,4.25
2022-12-01T02:36:19.217Z,4.13
2022-12-01T02:39:02.186Z,4.21
2022-12-01T02:41:36.927Z,4.17
2022-12-01T02:44:43.649Z,3.94
2022-12-01T02:47:16.170Z,3.98
2022-12-01T02:49:48.649Z,4.07
2022-12-01T02:52:19.603Z,4.48
2022-12-01T02:54:48.430Z,4.13
2022-12-01T02:57:16.309Z,4.34
2022-12-01T02:59:52.341Z,4.24
2022-12-01T03:02:58.539Z,4.44
2022-12-01T03:05:35.834Z,4.17
2022-12-01T03:09:00.411Z,4.39
2022-12-01T03:11:39.241Z,4.38
2022-12-01T03:14:36.194Z,4.39
2022-12-01T03:20:12.626Z,4.21
2022-12-01T03:22:58.684Z,4.42
2022-12-01T03:25:29.090Z,4.15
2022-12-01T03:28:20.762Z,3.97
2022-12-01T03:31:22.854Z,3.89
2022-12-01T03:33:57.349Z,4.08
2022-12-01T03:36:30.253Z,4.24
2022-12-01T03:39:00.517Z,4.07
2022-12-01T03:41:36.621Z,4.04
2022-12-01T03:44:16.847Z,4.29
2022-12-01T03:47:25.120Z,4.36
2022-12-01T03:49:54.189Z,4.32
2022-12-01T03:53:10.902Z,4.25
2022-12-01T03:55:42.456Z,4.46
2022-12-01T03:58:21.161Z,4.20
2022-12-01T04:00:53.147Z,4.26
2022-12-01T04:03:31.293Z,4.17
2022-12-01T04:05:59.576Z,4.29
2022-12-01T04:08:27.289Z,4.34
2022-12-01T04:10:55.133Z,4.06
2022-12-01T04:13:28.461Z,4.08
2022-12-01T04:15:55.577Z,4.00
2022-12-01T04:18:23.144Z,4.14
2022-12-01T04:21:16.895Z,4.58
2022-12-01T04:24:14.368Z,4.48
2022-12-01T04:26:42.101Z,4.56
2022-12-01T04:29:11.067Z,4.31
2022-12-01T04:31:43.198Z,4.03
2022-12-01T04:34:11.403Z,4.10
2022-12-01T04:36:43.175Z,4.22
2022-12-01T04:39:11.140Z,4.44
2022-12-01T04:41:39.312Z,4.31
2022-12-01T04:44:07.163Z,4.68
2022-12-01T04:46:35.148Z,4.79
2022-12-01T04:49:07.235Z,4.84
2022-12-01T04:51:40.201Z,4.77
2022-12-01T04:54:18.751Z,4.73
2022-12-01T04:56:47.176Z,4.91
2022-12-01T04:59:15.637Z,4.90
2022-12-01T05:01:43.311Z,4.76
2022-12-01T05:04:13.347Z,4.90
2022-12-01T05:06:41.327Z,4.69
2022-12-01T05:09:17.096Z,4.97
2022-12-01T05:11:45.178Z,4.72
2022-12-01T05:14:13.206Z,4.65
2022-12-01T05:16:41.289Z,4.79
2022-12-01T05:22:56.855Z,4.58
2022-12-01T05:25:11.167Z,4.61
2022-12-01T05:28:05.233Z,4.86
2022-12-01T05:30:33.255Z,4.73
2022-12-01T05:33:01.222Z,4.48
2022-12-01T05:35:29.198Z,4.72
2022-12-01T05:37:57.128Z,4.75
2022-12-01T05:40:25.231Z,4.59
2022-12-01T05:42:53.353Z,4.81
2022-12-01T05:45:21.140Z,4.94
2022-12-01T05:47:49.187Z,4.96
2022-12-01T05:50:17.323Z,4.69
2022-12-01T05:52:45.140Z,4.83
2022-12-01T05:55:13.211Z,4.99
2022-12-01T05:57:41.170Z,5.08
2022-12-01T06:00:10.241Z,4.65
2022-12-01T06:02:41.808Z,4.94
2022-12-01T06:05:09.647Z,5.10
2022-12-01T06:07:40.119Z,4.99
2022-12-01T06:10:09.190Z,4.99
2022-12-01T06:15:29.190Z,5.19
2022-12-01T06:18:00.242Z,5.10
2022-12-01T06:20:27.227Z,5.14
2022-12-01T06:22:55.162Z,5.03
2022-12-01T06:28:39.175Z,4.86
2022-12-01T06:31:07.264Z,4.96
2022-12-01T06:33:35.360Z,4.77
2022-12-01T06:36:05.959Z,4.65
2022-12-01T06:38:34.844Z,4.90
2022-12-01T06:41:03.855Z,5.03
2022-12-01T06:43:31.609Z,4.97
2022-12-01T06:48:57.363Z,5.03
2022-12-01T06:54:41.155Z,4.87
2022-12-01T06:57:09.142Z,4.96
2022-12-01T06:59:42.191Z,4.77
2022-12-01T07:02:16.996Z,4.69
2022-12-01T07:04:45.213Z,4.76
2022-12-01T07:07:13.207Z,4.75
2022-12-01T07:09:41.252Z,4.89
2022-12-01T07:12:33.219Z,4.80
2022-12-01T07:15:06.876Z,4.84
2022-12-01T07:23:19.172Z,4.76
2022-12-01T07:25:47.261Z,4.53
2022-12-01T07:28:15.168Z,4.31
2022-12-01T07:30:43.221Z,4.76
2022-12-01T07:33:11.225Z,4.81
2022-12-01T07:35:44.197Z,4.93
2022-12-01T07:38:21.927Z,4.73
2022-12-01T07:40:49.334Z,4.59
2022-12-01T07:43:17.176Z,4.77
2022-12-01T07:45:45.445Z,4.80
2022-12-01T07:48:13.211Z,4.96
2022-12-01T07:50:41.208Z,4.76
2022-12-01T07:53:09.181Z,4.66
2022-12-01T07:55:37.210Z,4.73
2022-12-01T07:58:30.186Z,4.65
2022-12-01T08:01:03.850Z,4.76
2022-12-01T08:03:31.156Z,4.84
2022-12-01T08:06:05.888Z,4.68
2022-12-01T08:08:35.400Z,4.76
2022-12-01T08:14:18.255Z,4.87
2022-12-01T08:16:51.579Z,4.84
2022-12-01T08:19:19.245Z,4.84
2022-12-01T08:21:47.136Z,4.84
2022-12-01T08:24:20.232Z,4.84
2022-12-01T08:26:47.172Z,4.91
2022-12-01T08:29:19.939Z,4.72
2022-12-01T08:32:13.194Z,4.62
2022-12-01T08:34:41.458Z,4.77
2022-12-01T08:37:09.393Z,4.89
2022-12-01T08:39:37.227Z,4.89
2022-12-01T08:42:06.200Z,4.34
2022-12-01T08:44:41.060Z,4.51
2022-12-01T08:47:11.170Z,4.55
2022-12-01T08:49:41.174Z,4.51
2022-12-01T08:52:09.170Z,4.75
2022-12-01T08:54:37.211Z,4.70
2022-12-01T08:57:05.196Z,4.42
2022-12-01T09:02:25.344Z,4.80
2022-12-01T09:04:53.283Z,4.72
2022-12-01T09:07:30.428Z,4.51
2022-12-01T09:10:02.220Z,4.84
2022-12-01T09:12:29.710Z,4.89
2022-12-01T09:14:57.236Z,4.80
2022-12-01T09:17:25.180Z,4.46
2022-12-01T09:19:58.193Z,4.80
2022-12-01T09:22:31.151Z,4.84
2022-12-01T09:27:56.230Z,4.96
2022-12-01T09:30:23.135Z,4.61
2022-12-01T09:32:51.159Z,4.94
2022-12-01T09:35:23.655Z,4.91
2022-12-01T09:37:51.165Z,4.80
2022-12-01T09:40:19.331Z,3.94
2022-12-01T09:42:49.310Z,4.35
2022-12-01T09:45:30.923Z,4.08
2022-12-01T09:48:07.726Z,4.46
2022-12-01T09:50:37.679Z,4.39
2022-12-01T09:53:13.987Z,4.22
2022-12-01T09:55:41.160Z,4.15
2022-12-01T09:58:16.620Z,4.13
2022-12-01T10:00:46.415Z,4.11
2022-12-01T10:03:45.505Z,4.26
2022-12-01T10:06:32.298Z,4.07
2022-12-01T10:09:19.503Z,3.91
2022-12-01T10:11:48.431Z,3.89
2022-12-01T10:14:23.078Z,3.58
2022-12-01T10:17:20.224Z,4.00
2022-12-01T10:20:35.760Z,4.00
2022-12-01T10:23:22.839Z,3.82
2022-12-01T10:26:04.916Z,3.63
2022-12-01T10:29:00.443Z,3.77
2022-12-01T10:31:42.428Z,4.10
2022-12-01T10:34:40.650Z,3.55
2022-12-01T10:37:18.692Z,3.96
2022-12-01T10:40:21.334Z,3.89
2022-12-01T10:42:50.783Z,3.96
2022-12-01T10:45:26.392Z,3.94
2022-12-01T10:48:40.691Z,4.10
2022-12-01T10:51:17.384Z,3.28
2022-12-01T10:54:08.056Z,3.28
2022-12-01T10:56:40.201Z,3.52
2022-12-01T10:59:39.704Z,3.44
2022-12-01T11:02:20.354Z,3.85
2022-12-01T11:05:24.588Z,3.97
2022-12-01T11:08:23.065Z,3.21
2022-12-01T11:10:52.148Z,3.20
2022-12-01T11:13:30.563Z,3.66
2022-12-01T11:16:01.924Z,3.52
2022-12-01T11:18:36.428Z,3.63
2022-12-01T11:21:29.230Z,3.93
2022-12-01T11:24:42.698Z,3.85
2022-12-01T11:27:39.385Z,4.01
2022-12-01T11:30:25.347Z,3.60
2022-12-01T11:32:56.512Z,3.49
2022-12-01T11:35:35.925Z,3.49
2022-12-01T11:38:29.424Z,3.59
2022-12-01T11:40:58.046Z,4.00
2022-12-01T11:43:37.285Z,3.98
2022-12-01T11:46:08.424Z,4.07
2022-12-01T11:48:36.391Z,4.20
2022-12-01T11:51:33.036Z,4.20
2022-12-01T11:57:48.148Z,3.90
2022-12-01T12:03:50.189Z,4.08
2022-12-01T12:06:41.675Z,3.89
2022-12-01T12:09:31.097Z,3.97
2022-12-01T12:12:54.257Z,4.07
2022-12-01T12:15:36.529Z,4.20
2022-12-01T12:18:51.271Z,3.97
2022-12-01T12:22:00.000Z,4.07
2022-12-01T12:24:33.107Z,4.01
2022-12-01T12:27:30.292Z,3.62
2022-12-01T12:30:18.041Z,3.69
2022-12-01T12:33:14.319Z,3.28
2022-12-01T12:36:08.844Z,3.47
2022-12-01T12:39:16.386Z,3.28
2022-12-01T12:42:34.879Z,3.68
2022-12-01T12:45:27.263Z,3.25
2022-12-01T12:48:18.533Z,3.73
2022-12-01T12:54:52.191Z,3.56
2022-12-01T13:00:34.944Z,3.97
2022-12-01T13:03:34.198Z,3.89
2022-12-01T13:06:13.287Z,4.04
2022-12-01T13:08:51.176Z,4.08
2022-12-01T13:11:50.765Z,3.86
2022-12-01T13:17:27.872Z,4.18
2022-12-01T13:19:55.428Z,4.21
2022-12-01T13:22:29.777Z,4.21
2022-12-01T13:24:57.254Z,4.25
2022-12-01T13:27:28.415Z,3.79
2022-12-01T13:32:49.920Z,3.65
2022-12-01T13:35:34.151Z,3.80
2022-12-01T13:38:26.969Z,3.93
2022-12-01T13:41:22.685Z,3.90
2022-12-01T13:46:47.223Z,3.93
2022-12-01T13:49:45.991Z,3.93
2022-12-01T13:52:22.913Z,3.94
2022-12-01T13:55:09.592Z,4.07
2022-12-01T13:57:44.122Z,4.04
2022-12-01T14:00:27.123Z,3.83
2022-12-01T14:03:13.583Z,3.56
2022-12-01T14:05:53.516Z,3.98
2022-12-01T14:08:28.863Z,4.00
2022-12-01T14:11:03.186Z,3.85
2022-12-01T14:14:05.793Z,3.94
2022-12-01T14:16:53.179Z,3.79
2022-12-01T14:22:45.276Z,3.97
2022-12-01T14:25:25.796Z,4.11
2022-12-01T14:28:02.460Z,4.14
2022-12-01T14:30:45.632Z,4.11
2022-12-01T14:36:53.231Z,3.90
2022-12-01T14:39:30.731Z,4.03
2022-12-01T14:45:40.039Z,3.96
2022-12-01T14:48:14.904Z,4.17
2022-12-01T14:51:00.790Z,3.65
2022-12-01T14:53:36.155Z,3.56
2022-12-01T14:56:14.030Z,3.44
2022-12-01T14:58:52.771Z,3.69
2022-12-01T15:01:23.071Z,3.85
2022-12-01T15:04:01.322Z,3.90
2022-12-01T15:06:30.800Z,3.83
2022-12-01T15:09:33.348Z,3.47
2022-12-01T15:12:31.996Z,3.59
2022-12-01T15:15:15.556Z,3.90
2022-12-01T15:17:45.503Z,3.80
2022-12-01T15:20:35.614Z,3.70
2022-12-01T15:23:12.827Z,3.90
2022-12-01T15:25:46.378Z,4.03
2022-12-01T15:28:19.067Z,3.96
2022-12-01T15:30:53.564Z,4.06
2022-12-01T15:33:27.845Z,3.25
2022-12-01T15:35:58.776Z,3.65
2022-12-01T15:38:31.120Z,3.37
2022-12-01T15:44:01.893Z,3.27
2022-12-01T15:46:31.515Z,3.31
2022-12-01T15:49:18.404Z,3.59
2022-12-01T15:51:47.285Z,3.52
2022-12-01T15:54:19.583Z,3.34
2022-12-01T15:56:58.562Z,3.54
2022-12-01T16:02:39.793Z,3.44
2022-12-01T16:05:12.959Z,3.59
2022-12-01T16:10:35.347Z,3.30
2022-12-01T16:13:40.963Z,3.35
2022-12-01T16:16:40.152Z,3.05
2022-12-01T16:19:10.256Z,2.80
2022-12-01T16:21:54.501Z,2.93
2022-12-01T16:30:26.250Z,3.35
2022-12-01T16:36:15.870Z,3.18
2022-12-01T16:38:43.298Z,3.47
2022-12-01T16:41:17.775Z,3.49
2022-12-01T16:43:59.412Z,3.66
2022-12-01T16:46:37.342Z,3.62
2022-12-01T16:49:56.310Z,3.35
2022-12-01T16:55:36.521Z,3.12
2022-12-01T16:58:03.334Z,3.38
2022-12-01T17:00:31.328Z,3.48
2022-12-01T17:03:00.065Z,3.62
2022-12-01T17:05:27.796Z,3.66
2022-12-01T17:07:55.655Z,3.48
2022-12-01T17:13:15.226Z,3.44
2022-12-01T17:15:47.871Z,3.58
2022-12-01T17:18:22.238Z,3.69
2022-12-01T17:21:01.004Z,3.38
2022-12-01T17:23:34.084Z,3.65
2022-12-01T17:26:01.369Z,3.75
2022-12-01T17:28:29.168Z,3.75
2022-12-01T17:31:00.604Z,3.60
2022-12-01T17:33:29.340Z,3.70
2022-12-01T17:36:12.544Z,3.83
2022-12-01T17:38:47.966Z,3.83
2022-12-01T17:41:18.577Z,3.73
2022-12-01T17:43:47.545Z,3.56
2022-12-01T17:46:15.317Z,3.58
2022-12-01T17:48:47.404Z,3.17
2022-12-01T17:51:15.616Z,3.31
2022-12-01T17:53:43.191Z,3.47
2022-12-01T17:56:13.950Z,3.11
2022-12-01T17:58:41.715Z,3.41
2022-12-01T18:01:17.337Z,3.56
2022-12-01T18:06:39.536Z,3.52
2022-12-01T18:09:07.494Z,3.60
2022-12-01T18:11:44.211Z,3.73
2022-12-01T18:14:11.412Z,3.66
2022-12-01T18:16:39.334Z,3.76
2022-12-01T18:19:07.214Z,3.77
2022-12-01T18:24:32.164Z,3.49
2022-12-01T18:26:59.200Z,3.41
2022-12-01T18:29:28.598Z,3.08
2022-12-01T18:31:59.261Z,2.92
2022-12-01T18:34:29.707Z,2.58
2022-12-01T18:37:23.228Z,2.62
2022-12-01T18:43:07.232Z,2.51
2022-12-01T18:45:40.207Z,2.55
2022-12-01T18:51:08.358Z,2.45
2022-12-01T18:57:00.051Z,2.17
2022-12-01T18:59:29.472Z,2.37
2022-12-01T19:01:57.327Z,2.08
2022-12-01T19:04:25.152Z,2.08
2022-12-01T19:06:58.226Z,2.20
2022-12-01T19:09:25.152Z,2.21
2022-12-01T19:11:59.782Z,2.18
2022-12-01T19:14:54.205Z,2.03
2022-12-01T19:17:23.207Z,2.40
2022-12-01T19:19:55.172Z,2.79
2022-12-01T19:22:28.200Z,2.41
2022-12-01T19:24:55.564Z,2.08
2022-12-01T19:27:23.263Z,1.97
2022-12-01T19:30:18.194Z,2.20
2022-12-01T19:32:45.407Z,2.27
2022-12-01T19:35:18.185Z,2.59
2022-12-01T19:37:45.943Z,2.87
2022-12-01T19:40:13.704Z,2.97
2022-12-01T19:42:42.100Z,3.03
2022-12-01T19:45:09.697Z,2.96
2022-12-01T19:47:37.622Z,3.18
2022-12-01T19:50:05.918Z,3.25
2022-12-01T19:52:39.058Z,2.79
2022-12-01T19:55:11.876Z,3.24
2022-12-01T19:57:45.183Z,3.18
2022-12-01T20:00:18.560Z,3.14
2022-12-01T20:02:47.588Z,3.31
2022-12-01T20:08:07.319Z,2.87
2022-12-01T20:10:40.184Z,2.90
2022-12-01T20:13:13.244Z,3.01
2022-12-01T20:16:11.630Z,2.52
2022-12-01T20:18:40.439Z,2.87
2022-12-01T20:21:12.621Z,3.11
2022-12-01T20:23:41.189Z,2.66
2022-12-01T20:26:10.460Z,2.82
2022-12-01T20:31:32.726Z,2.82
2022-12-01T20:34:06.538Z,2.77
2022-12-01T20:36:36.192Z,3.08
2022-12-01T20:39:04.598Z,3.07
2022-12-01T20:41:33.845Z,3.15
2022-12-01T20:44:26.739Z,2.71
2022-12-01T20:46:59.952Z,2.72
2022-12-01T20:49:27.350Z,2.11
2022-12-01T20:51:55.296Z,2.27
2022-12-01T20:57:15.611Z,2.82
2022-12-01T20:59:43.188Z,3.00
2022-12-01T21:02:11.259Z,2.69
2022-12-01T21:04:43.240Z,2.21
2022-12-01T21:07:11.222Z,2.84
2022-12-01T21:09:39.356Z,2.73
2022-12-01T21:12:51.284Z,3.00
2022-12-01T21:15:25.771Z,2.59
2022-12-01T21:17:57.153Z,2.82
2022-12-01T21:20:40.968Z,2.93
2022-12-01T21:23:11.625Z,2.49
2022-12-01T21:25:40.543Z,2.49
2022-12-01T21:28:20.791Z,2.08
2022-12-01T21:30:51.309Z,1.93
2022-12-01T21:33:31.470Z,2.15
2022-12-01T21:36:01.916Z,2.46
2022-12-01T21:38:31.800Z,2.15
2022-12-01T21:41:30.314Z,2.01
2022-12-01T21:44:02.695Z,2.11
2022-12-01T21:46:31.805Z,1.90
2022-12-01T21:52:41.805Z,2.07
2022-12-01T21:55:29.269Z,2.06
2022-12-01T21:58:02.175Z,2.25
2022-12-01T22:00:30.994Z,2.33
2022-12-01T22:03:08.335Z,2.63
2022-12-01T22:06:06.891Z,2.11
2022-12-01T22:09:11.672Z,2.58
2022-12-01T22:11:39.223Z,2.73
2022-12-01T22:14:18.480Z,2.38
2022-12-01T22:19:59.707Z,2.58
2022-12-01T22:22:34.332Z,2.49
2022-12-01T22:25:30.016Z,1.99
2022-12-01T22:27:59.955Z,1.97
2022-12-01T22:30:27.185Z,1.70
2022-12-01T22:33:10.351Z,1.89
2022-12-01T22:36:19.899Z,2.11
2022-12-01T22:41:39.182Z,1.97
2022-12-01T22:44:12.409Z,2.17
2022-12-01T22:46:42.135Z,2.15
2022-12-01T22:52:30.123Z,2.21
2022-12-01T22:55:19.467Z,2.66
2022-12-01T22:57:47.279Z,2.73
2022-12-01T23:00:17.886Z,2.48
2022-12-01T23:02:48.561Z,2.68
2022-12-01T23:08:23.593Z,2.17
2022-12-01T23:10:52.117Z,2.52
2022-12-01T23:13:23.804Z,2.37
2022-12-01T23:15:55.455Z,2.40
2022-12-01T23:18:26.531Z,2.24
2022-12-01T23:20:57.550Z,2.71
2022-12-01T23:23:31.676Z,2.65
2022-12-01T23:26:02.210Z,2.51
2022-12-01T23:28:32.645Z,2.68
2022-12-01T23:31:05.557Z,2.72
2022-12-01T23:33:34.397Z,2.87
2022-12-01T23:36:33.725Z,2.80
2022-12-01T23:39:04.561Z,1.99
2022-12-01T23:44:42.209Z,1.79
2022-12-01T23:47:44.344Z,1.68
2022-12-01T23:50:19.078Z,1.62
2022-12-01T23:52:52.005Z,1.86
2022-12-01T23:55:27.603Z,1.96
2022-12-01T23:57:55.767Z,1.85
